createdAt,value
2022-10-01T00:01:52.175Z,61.20
2022-10-01T00:04:19.156Z,61.35
2022-10-01T00:06:45.875Z,61.53
2022-10-01T00:09:12.788Z,61.87
2022-10-01T00:11:39.578Z,61.91
2022-10-01T00:14:06.480Z,61.87
2022-10-01T00:16:33.293Z,61.72
2022-10-01T00:19:01.928Z,61.69
2022-10-01T00:21:31.943Z,61.88
2022-10-01T00:24:00.913Z,62.20
2022-10-01T00:26:29.687Z,62.19
2022-10-01T00:29:00.003Z,62.35
2022-10-01T00:31:27.730Z,62.48
2022-10-01T00:33:55.862Z,62.20
2022-10-01T00:36:24.611Z,62.39
2022-10-01T00:38:51.530Z,62.17
2022-10-01T00:41:19.552Z,62.25
2022-10-01T00:43:49.918Z,62.39
2022-10-01T00:46:22.546Z,62.67
2022-10-01T00:49:06.020Z,62.73
2022-10-01T00:51:40.330Z,63.07
2022-10-01T00:54:10.750Z,63.20
2022-10-01T00:56:38.416Z,63.41
2022-10-01T00:59:06.710Z,63.94
2022-10-01T01:01:37.872Z,64.22
2022-10-01T01:04:16.355Z,63.96
2022-10-01T01:06:47.935Z,64.12
2022-10-01T01:09:14.773Z,64.46
2022-10-01T01:11:53.141Z,64.45
2022-10-01T01:14:27.765Z,64.30
2022-10-01T01:16:59.788Z,64.34
2022-10-01T01:19:43.979Z,63.94
2022-10-01T01:22:15.091Z,63.61
2022-10-01T01:24:50.091Z,63.88
2022-10-01T01:27:28.929Z,63.38
2022-10-01T01:30:04.325Z,63.07
2022-10-01T01:32:38.887Z,63.17
2022-10-01T01:35:11.375Z,63.46
2022-10-01T01:37:43.228Z,63.08
2022-10-01T01:40:13.951Z,62.96
2022-10-01T01:42:44.057Z,62.62
2022-10-01T01:45:16.933Z,62.61
2022-10-01T01:47:45.764Z,62.74
2022-10-01T01:50:16.172Z,62.45
2022-10-01T01:52:43.397Z,62.32
2022-10-01T01:55:10.513Z,62.19
2022-10-01T01:57:41.469Z,62.26
2022-10-01T02:00:10.739Z,61.92
2022-10-01T02:02:41.640Z,61.87
2022-10-01T02:05:13.810Z,61.77
2022-10-01T02:07:55.668Z,61.66
2022-10-01T02:10:37.201Z,61.43
2022-10-01T02:13:22.120Z,61.92
2022-10-01T02:15:59.921Z,62.06
2022-10-01T02:18:33.842Z,62.22
2022-10-01T02:21:10.928Z,62.87
2022-10-01T02:23:43.048Z,62.72
2022-10-01T02:26:14.066Z,62.39
2022-10-01T02:28:42.493Z,62.69
2022-10-01T02:31:12.779Z,62.56
2022-10-01T02:33:43.462Z,62.73
2022-10-01T02:36:13.210Z,62.24
2022-10-01T02:38:44.027Z,62.42
2022-10-01T02:41:13.833Z,62.38
2022-10-01T02:43:51.439Z,61.96
2022-10-01T02:46:25.063Z,61.77
2022-10-01T02:48:53.419Z,61.88
2022-10-01T02:51:29.946Z,62.04
2022-10-01T02:54:03.116Z,62.01
2022-10-01T02:56:49.516Z,61.98
2022-10-01T02:59:17.038Z,62.25
2022-10-01T03:01:43.849Z,63.07
2022-10-01T03:04:13.273Z,62.97
2022-10-01T03:06:39.791Z,62.86
2022-10-01T03:09:08.705Z,63.58
2022-10-01T03:11:35.734Z,63.36
2022-10-01T03:14:03.929Z,63.66
2022-10-01T03:16:30.622Z,63.08
2022-10-01T03:18:57.677Z,63.74
2022-10-01T03:21:25.675Z,63.54
2022-10-01T03:23:52.322Z,63.30
2022-10-01T03:26:19.000Z,63.07
2022-10-01T03:28:45.707Z,64.16
2022-10-01T03:31:12.639Z,63.84
2022-10-01T03:33:39.515Z,64.15
2022-10-01T03:36:06.592Z,64.25
2022-10-01T03:38:34.618Z,63.47
2022-10-01T03:41:02.165Z,63.63
2022-10-01T03:43:28.981Z,63.51
2022-10-01T03:45:56.637Z,63.35
2022-10-01T03:48:23.732Z,63.77
2022-10-01T03:50:54.754Z,63.27
2022-10-01T03:53:21.664Z,63.89
2022-10-01T03:55:50.024Z,64.17
2022-10-01T03:58:18.852Z,64.01
2022-10-01T04:00:46.565Z,64.64
2022-10-01T04:03:13.683Z,63.97
2022-10-01T04:05:41.439Z,64.36
2022-10-01T04:08:08.209Z,64.67
2022-10-01T04:10:34.874Z,64.49
2022-10-01T04:13:03.730Z,64.59
2022-10-01T04:15:30.617Z,65.03
2022-10-01T04:17:58.030Z,64.82
2022-10-01T04:20:25.277Z,64.83
2022-10-01T04:22:52.005Z,64.22
2022-10-01T04:25:18.625Z,64.51
2022-10-01T04:27:56.016Z,64.57
2022-10-01T04:30:25.226Z,64.24
2022-10-01T04:32:51.892Z,64.63
2022-10-01T04:35:18.974Z,64.35
2022-10-01T04:37:45.873Z,64.68
2022-10-01T04:40:12.513Z,64.69
2022-10-01T04:42:41.065Z,64.46
2022-10-01T04:45:09.270Z,64.71
2022-10-01T04:47:37.782Z,65.14
2022-10-01T04:50:05.489Z,64.90
2022-10-01T04:52:32.158Z,64.90
2022-10-01T04:54:58.899Z,64.76
2022-10-01T04:57:25.595Z,64.83
2022-10-01T04:59:52.235Z,65.23
2022-10-01T05:02:19.050Z,65.65
2022-10-01T05:04:47.930Z,64.62
2022-10-01T05:07:14.678Z,65.57
2022-10-01T05:09:41.659Z,65.70
2022-10-01T05:12:08.299Z,65.78
2022-10-01T05:14:35.111Z,65.60
2022-10-01T05:17:01.921Z,65.46
2022-10-01T05:19:29.631Z,64.81
2022-10-01T05:21:57.899Z,64.66
2022-10-01T05:24:24.834Z,64.58
2022-10-01T05:26:53.941Z,64.52
2022-10-01T05:29:20.739Z,64.11
2022-10-01T05:31:48.350Z,64.27
2022-10-01T05:34:15.244Z,64.44
2022-10-01T05:36:41.858Z,64.29
2022-10-01T05:39:10.598Z,64.89
2022-10-01T05:41:37.364Z,64.39
2022-10-01T05:44:04.215Z,64.84
2022-10-01T05:46:32.681Z,65.03
2022-10-01T05:48:59.760Z,64.89
2022-10-01T05:51:27.243Z,64.95
2022-10-01T05:53:54.294Z,65.46
2022-10-01T05:56:22.302Z,64.95
2022-10-01T05:58:49.152Z,64.66
2022-10-01T06:01:15.901Z,65.19
2022-10-01T06:03:43.968Z,65.12
2022-10-01T06:06:10.651Z,64.70
2022-10-01T06:08:38.110Z,64.66
2022-10-01T06:11:05.297Z,65.04
2022-10-01T06:13:35.702Z,64.80
2022-10-01T06:16:02.507Z,65.46
2022-10-01T06:18:29.188Z,65.03
2022-10-01T06:20:58.041Z,64.69
2022-10-01T06:23:24.754Z,64.68
2022-10-01T06:25:51.796Z,64.81
2022-10-01T06:28:19.309Z,64.42
2022-10-01T06:30:47.607Z,64.29
2022-10-01T06:33:16.391Z,64.50
2022-10-01T06:35:45.077Z,64.15
2022-10-01T06:38:12.041Z,64.64
2022-10-01T06:40:39.682Z,64.35
2022-10-01T06:43:08.315Z,64.45
2022-10-01T06:45:41.080Z,64.63
2022-10-01T06:48:13.946Z,64.79
2022-10-01T06:50:41.287Z,64.74
2022-10-01T06:53:08.011Z,64.85
2022-10-01T06:55:36.763Z,65.03
2022-10-01T06:58:06.582Z,64.68
2022-10-01T07:00:35.860Z,64.98
2022-10-01T07:03:04.697Z,64.80
2022-10-01T07:05:32.742Z,64.23
2022-10-01T07:07:59.539Z,64.65
2022-10-01T07:10:26.271Z,64.51
2022-10-01T07:12:53.098Z,64.87
2022-10-01T07:15:22.771Z,64.88
2022-10-01T07:17:50.669Z,65.64
2022-10-01T07:20:19.950Z,65.87
2022-10-01T07:22:49.793Z,66.06
2022-10-01T07:25:16.925Z,66.55
2022-10-01T07:27:43.724Z,66.55
2022-10-01T07:30:11.324Z,66.86
2022-10-01T07:32:38.047Z,66.85
2022-10-01T07:35:05.928Z,66.91
2022-10-01T07:37:32.895Z,66.80
2022-10-01T07:40:05.402Z,66.60
2022-10-01T07:42:34.194Z,67.09
2022-10-01T07:45:01.791Z,67.04
2022-10-01T07:47:29.185Z,66.68
2022-10-01T07:49:55.849Z,66.98
2022-10-01T07:52:22.538Z,67.05
2022-10-01T07:54:49.208Z,66.69
2022-10-01T07:57:17.501Z,66.49
2022-10-01T07:59:44.222Z,66.63
2022-10-01T08:02:14.836Z,66.66
2022-10-01T08:05:00.103Z,66.79
2022-10-01T08:07:26.844Z,66.85
2022-10-01T08:09:53.543Z,66.91
2022-10-01T08:12:21.915Z,66.95
2022-10-01T08:14:48.554Z,66.83
2022-10-01T08:17:15.232Z,66.51
2022-10-01T08:19:42.098Z,66.55
2022-10-01T08:22:08.932Z,66.14
2022-10-01T08:24:36.274Z,65.72
2022-10-01T08:27:03.089Z,65.67
2022-10-01T08:29:32.594Z,66.04
2022-10-01T08:31:59.439Z,66.09
2022-10-01T08:34:26.162Z,65.98
2022-10-01T08:36:52.886Z,65.77
2022-10-01T08:39:20.616Z,65.67
2022-10-01T08:41:55.679Z,65.85
2022-10-01T08:44:28.269Z,65.51
2022-10-01T08:47:06.464Z,65.58
2022-10-01T08:49:40.451Z,65.67
2022-10-01T08:52:14.452Z,65.64
2022-10-01T08:54:46.362Z,65.67
2022-10-01T08:57:14.766Z,65.50
2022-10-01T08:59:44.413Z,65.66
2022-10-01T09:02:29.273Z,64.85
2022-10-01T09:05:01.453Z,65.09
2022-10-01T09:07:51.651Z,64.87
2022-10-01T09:10:42.137Z,64.69
2022-10-01T09:13:25.188Z,64.74
2022-10-01T09:16:02.151Z,64.68
2022-10-01T09:18:43.390Z,64.83
2022-10-01T09:21:18.054Z,64.51
2022-10-01T09:23:57.719Z,63.98
2022-10-01T09:26:25.852Z,63.75
2022-10-01T09:28:55.430Z,64.32
2022-10-01T09:31:27.327Z,63.87
2022-10-01T09:34:02.443Z,63.44
2022-10-01T09:36:36.431Z,63.71
2022-10-01T09:39:14.882Z,63.57
2022-10-01T09:41:41.979Z,63.53
2022-10-01T09:44:18.865Z,62.91
2022-10-01T09:46:46.141Z,63.07
2022-10-01T09:49:30.164Z,62.49
2022-10-01T09:52:02.727Z,62.55
2022-10-01T09:54:35.809Z,61.86
2022-10-01T09:57:08.603Z,61.00
2022-10-01T09:59:40.227Z,61.40
2022-10-01T10:02:16.382Z,61.01
2022-10-01T10:04:44.655Z,60.67
2022-10-01T10:07:17.759Z,61.61
2022-10-01T10:09:45.261Z,61.39
2022-10-01T10:12:26.680Z,61.26
2022-10-01T10:14:55.783Z,61.92
2022-10-01T10:17:23.072Z,62.72
2022-10-01T10:19:52.532Z,61.75
2022-10-01T10:22:25.350Z,61.31
2022-10-01T10:24:53.502Z,62.90
2022-10-01T10:27:26.798Z,63.33
2022-10-01T10:30:05.521Z,62.30
2022-10-01T10:32:33.392Z,62.44
2022-10-01T10:35:10.587Z,63.15
2022-10-01T10:37:44.992Z,63.69
2022-10-01T10:40:17.876Z,63.04
2022-10-01T10:42:48.942Z,62.81
2022-10-01T10:45:20.282Z,62.62
2022-10-01T10:47:51.466Z,61.64
2022-10-01T10:50:30.490Z,61.56
2022-10-01T10:52:57.753Z,61.62
2022-10-01T10:55:26.860Z,61.71
2022-10-01T10:57:57.483Z,61.86
2022-10-01T11:00:26.347Z,62.12
2022-10-01T11:02:56.923Z,61.80
2022-10-01T11:05:29.970Z,61.52
2022-10-01T11:07:59.483Z,61.88
2022-10-01T11:10:38.255Z,61.71
2022-10-01T11:13:44.646Z,61.09
2022-10-01T11:16:37.260Z,61.61
2022-10-01T11:19:35.060Z,61.51
2022-10-01T11:22:19.090Z,61.25
2022-10-01T11:25:01.080Z,60.99
2022-10-01T11:27:36.945Z,61.62
2022-10-01T11:30:09.190Z,61.73
2022-10-01T11:32:42.622Z,62.16
2022-10-01T11:35:42.136Z,62.87
2022-10-01T11:38:24.354Z,62.57
2022-10-01T11:40:54.436Z,62.67
2022-10-01T11:43:24.577Z,62.97
2022-10-01T11:45:57.264Z,62.47
2022-10-01T11:48:29.954Z,62.67
2022-10-01T11:51:02.086Z,63.12
2022-10-01T11:53:33.968Z,63.06
2022-10-01T11:56:25.534Z,63.15
2022-10-01T11:58:58.800Z,63.01
2022-10-01T12:01:32.004Z,62.85
2022-10-01T12:04:06.757Z,62.57
2022-10-01T12:06:38.307Z,63.23
2022-10-01T12:09:14.354Z,63.45
2022-10-01T12:11:47.671Z,63.41
2022-10-01T12:14:20.679Z,63.50
2022-10-01T12:16:53.786Z,63.47
2022-10-01T12:19:25.417Z,63.71
2022-10-01T12:21:56.567Z,63.65
2022-10-01T12:24:29.876Z,64.07
2022-10-01T12:27:12.838Z,63.67
2022-10-01T12:29:49.005Z,63.68
2022-10-01T12:32:26.248Z,63.25
2022-10-01T12:35:02.950Z,63.99
2022-10-01T12:37:44.926Z,63.63
2022-10-01T12:40:26.630Z,63.02
2022-10-01T12:43:07.406Z,62.90
2022-10-01T12:45:45.575Z,63.23
2022-10-01T12:48:21.172Z,63.00
2022-10-01T12:50:53.988Z,63.01
2022-10-01T12:53:30.043Z,63.48
2022-10-01T12:56:12.863Z,63.25
2022-10-01T12:58:51.215Z,63.35
2022-10-01T13:01:34.368Z,62.70
2022-10-01T13:04:23.931Z,63.12
2022-10-01T13:07:11.846Z,62.97
2022-10-01T13:09:48.809Z,63.52
2022-10-01T13:12:41.407Z,63.85
2022-10-01T13:15:13.833Z,64.06
2022-10-01T13:17:46.217Z,64.23
2022-10-01T13:20:22.775Z,64.28
2022-10-01T13:22:55.652Z,63.83
2022-10-01T13:25:31.158Z,63.87
2022-10-01T13:28:10.657Z,63.47
2022-10-01T13:30:53.112Z,62.85
2022-10-01T13:33:23.325Z,63.18
2022-10-01T13:35:56.321Z,62.74
2022-10-01T13:38:39.254Z,63.19
2022-10-01T13:41:17.126Z,63.15
2022-10-01T13:43:54.163Z,63.54
2022-10-01T13:46:21.576Z,64.20
2022-10-01T13:48:50.489Z,63.92
2022-10-01T13:51:17.579Z,64.37
2022-10-01T13:53:50.040Z,63.67
2022-10-01T13:56:28.918Z,64.18
2022-10-01T13:58:57.284Z,63.77
2022-10-01T14:01:30.937Z,64.54
2022-10-01T14:04:05.126Z,64.14
2022-10-01T14:06:39.657Z,64.23
2022-10-01T14:09:14.731Z,64.09
2022-10-01T14:12:03.876Z,63.94
2022-10-01T14:14:55.322Z,63.30
2022-10-01T14:17:25.394Z,63.53
2022-10-01T14:19:52.605Z,63.46
2022-10-01T14:22:59.742Z,63.97
2022-10-01T14:25:38.171Z,64.13
2022-10-01T14:28:27.069Z,64.48
2022-10-01T14:31:04.264Z,63.58
2022-10-01T14:34:06.700Z,64.48
2022-10-01T14:36:36.057Z,64.51
2022-10-01T14:39:14.422Z,63.86
2022-10-01T14:41:41.206Z,63.58
2022-10-01T14:44:20.371Z,63.53
2022-10-01T14:46:48.668Z,63.68
2022-10-01T14:49:24.396Z,63.91
2022-10-01T14:51:53.104Z,63.90
2022-10-01T14:54:21.542Z,64.17
2022-10-01T14:56:49.730Z,63.44
2022-10-01T14:59:22.775Z,63.78
2022-10-01T15:02:03.608Z,63.96
2022-10-01T15:04:30.668Z,63.88
2022-10-01T15:07:04.626Z,64.04
2022-10-01T15:09:33.681Z,63.81
2022-10-01T15:12:01.410Z,63.51
2022-10-01T15:14:28.321Z,63.33
2022-10-01T15:16:55.189Z,63.32
2022-10-01T15:19:24.016Z,63.29
2022-10-01T15:21:54.754Z,63.39
2022-10-01T15:24:29.985Z,63.21
2022-10-01T15:26:58.811Z,63.14
2022-10-01T15:29:26.279Z,63.21
2022-10-01T15:31:53.720Z,63.13
2022-10-01T15:34:25.648Z,63.78
2022-10-01T15:36:53.916Z,64.00
2022-10-01T15:39:28.462Z,62.60
2022-10-01T15:41:56.905Z,63.33
2022-10-01T15:44:49.033Z,63.64
2022-10-01T15:47:27.508Z,63.50
2022-10-01T15:50:24.782Z,62.37
2022-10-01T15:53:00.184Z,63.32
2022-10-01T15:55:33.874Z,63.35
2022-10-01T15:58:10.746Z,64.07
2022-10-01T16:00:53.588Z,63.63
2022-10-01T16:03:25.504Z,63.67
2022-10-01T16:05:55.346Z,63.41
2022-10-01T16:08:26.152Z,63.11
2022-10-01T16:11:17.197Z,63.15
2022-10-01T16:13:45.750Z,61.79
2022-10-01T16:16:34.112Z,62.38
2022-10-01T16:19:18.295Z,62.35
2022-10-01T16:22:14.662Z,62.85
2022-10-01T16:24:43.468Z,62.58
2022-10-01T16:27:15.497Z,62.33
2022-10-01T16:29:43.453Z,62.82
2022-10-01T16:32:14.952Z,62.47
2022-10-01T16:34:41.832Z,63.33
2022-10-01T16:37:11.175Z,63.44
2022-10-01T16:39:38.145Z,64.17
2022-10-01T16:42:23.201Z,63.41
2022-10-01T16:44:52.167Z,62.05
2022-10-01T16:47:18.859Z,62.51
2022-10-01T16:49:48.395Z,62.62
2022-10-01T16:52:16.916Z,62.42
2022-10-01T16:57:25.735Z,61.96
2022-10-01T16:59:52.757Z,62.22
2022-10-01T17:02:19.616Z,62.94
2022-10-01T17:04:50.054Z,62.80
2022-10-01T17:07:18.510Z,62.91
2022-10-01T17:09:47.113Z,63.03
2022-10-01T17:12:14.009Z,63.08
2022-10-01T17:14:40.749Z,63.11
2022-10-01T17:17:07.450Z,62.01
2022-10-01T17:19:34.138Z,62.54
2022-10-01T17:22:01.560Z,61.65
2022-10-01T17:27:10.755Z,62.02
2022-10-01T17:29:39.323Z,62.43
2022-10-01T17:32:06.221Z,61.92
2022-10-01T17:34:34.995Z,62.40
2022-10-01T17:37:01.937Z,62.15
2022-10-01T17:39:31.368Z,61.58
2022-10-01T17:41:58.263Z,61.79
2022-10-01T17:44:25.075Z,62.08
2022-10-01T17:46:51.782Z,61.91
2022-10-01T17:49:18.833Z,61.45
2022-10-01T17:51:45.740Z,60.85
2022-10-01T17:54:12.607Z,60.91
2022-10-01T17:56:42.704Z,60.66
2022-10-01T17:59:09.637Z,61.19
2022-10-01T18:01:36.558Z,60.33
2022-10-01T18:04:05.641Z,60.72
2022-10-01T18:06:33.017Z,61.03
2022-10-01T18:17:51.355Z,61.18
2022-10-01T18:20:20.453Z,60.75
2022-10-01T18:22:51.264Z,60.20
2022-10-01T18:25:19.539Z,60.42
2022-10-01T18:27:50.751Z,60.94
2022-10-01T18:30:21.775Z,60.88
2022-10-01T18:32:56.770Z,61.05
2022-10-01T18:35:30.556Z,60.92
2022-10-01T18:38:03.450Z,60.37
2022-10-01T18:40:33.522Z,60.27
2022-10-01T18:43:07.146Z,60.23
2022-10-01T18:46:02.042Z,60.44
2022-10-01T18:48:43.695Z,60.10
2022-10-01T18:51:22.715Z,60.44
2022-10-01T18:54:06.903Z,61.21
2022-10-01T18:56:35.994Z,60.77
2022-10-01T18:59:23.471Z,60.93
2022-10-01T19:02:06.403Z,60.82
2022-10-01T19:04:53.352Z,61.35
2022-10-01T19:07:31.794Z,61.60
2022-10-01T19:10:11.017Z,61.67
2022-10-01T19:12:51.398Z,61.89
2022-10-01T19:15:25.549Z,61.71
2022-10-01T19:18:24.055Z,61.42
2022-10-01T19:21:03.195Z,61.96
2022-10-01T19:23:47.243Z,61.38
2022-10-01T19:26:22.518Z,61.76
2022-10-01T19:29:01.922Z,61.52
2022-10-01T19:31:37.466Z,61.78
2022-10-01T19:34:09.851Z,62.06
2022-10-01T19:36:43.453Z,62.16
2022-10-01T19:39:18.835Z,61.76
2022-10-01T19:41:51.763Z,62.12
2022-10-01T19:44:27.822Z,62.78
2022-10-01T19:47:01.270Z,62.45
2022-10-01T19:49:35.378Z,62.56
2022-10-01T19:52:12.126Z,62.87
2022-10-01T19:54:44.248Z,61.17
2022-10-01T20:00:12.732Z,62.18
2022-10-01T20:02:47.911Z,61.85
2022-10-01T20:05:30.065Z,61.79
2022-10-01T20:08:03.452Z,61.72
2022-10-01T20:10:38.668Z,62.23
2022-10-01T20:13:28.508Z,62.33
2022-10-01T20:16:04.426Z,62.29
2022-10-01T20:18:40.582Z,62.38
2022-10-01T20:21:33.821Z,62.11
2022-10-01T20:24:08.935Z,61.93
2022-10-01T20:26:41.890Z,62.62
2022-10-01T20:29:20.978Z,62.08
2022-10-01T20:34:50.921Z,62.06
2022-10-01T20:37:56.100Z,62.35
2022-10-01T20:40:29.580Z,61.80
2022-10-01T20:43:11.109Z,62.72
2022-10-01T20:45:40.767Z,62.07
2022-10-01T20:48:14.208Z,62.39
2022-10-01T20:50:45.022Z,61.76
2022-10-01T20:53:30.328Z,62.43
2022-10-01T20:56:02.086Z,61.99
2022-10-01T21:01:20.681Z,61.34
2022-10-01T21:03:51.782Z,61.84
2022-10-01T21:06:26.329Z,61.54
2022-10-01T21:09:00.925Z,61.28
2022-10-01T21:11:33.561Z,61.22
2022-10-01T21:14:14.363Z,60.56
2022-10-01T21:16:55.743Z,60.65
2022-10-01T21:19:38.405Z,60.23
2022-10-01T21:22:19.511Z,60.37
2022-10-01T21:25:04.046Z,60.28
2022-10-01T21:27:50.324Z,60.85
2022-10-01T21:30:19.317Z,60.87
2022-10-01T21:33:14.001Z,60.87
2022-10-01T21:36:11.931Z,60.60
2022-10-01T21:38:45.165Z,60.44
2022-10-01T21:41:45.069Z,60.60
2022-10-01T21:44:35.637Z,60.97
2022-10-01T21:47:08.053Z,60.67
2022-10-01T21:49:47.850Z,60.69
2022-10-01T21:52:32.450Z,61.49
2022-10-01T21:55:39.941Z,61.39
2022-10-01T21:58:20.671Z,60.51
2022-10-01T22:00:56.428Z,61.16
2022-10-01T22:03:38.088Z,60.77
2022-10-01T22:10:09.656Z,61.88
2022-10-01T22:12:40.836Z,61.41
2022-10-01T22:15:22.155Z,61.20
2022-10-01T22:17:51.031Z,62.08
2022-10-01T22:20:19.971Z,61.93
2022-10-01T22:22:50.297Z,62.15
2022-10-01T22:25:17.459Z,62.25
2022-10-01T22:27:50.568Z,61.71
2022-10-01T22:30:21.082Z,62.13
2022-10-01T22:32:53.863Z,61.96
2022-10-01T22:35:26.326Z,62.00
2022-10-01T22:37:58.697Z,61.89
2022-10-01T22:40:31.670Z,61.34
2022-10-01T22:43:05.325Z,61.46
2022-10-01T22:45:50.889Z,62.14
2022-10-01T22:48:33.310Z,62.12
2022-10-01T22:51:12.474Z,62.06
2022-10-01T22:54:02.024Z,61.80
2022-10-01T22:56:38.344Z,62.13
2022-10-01T22:59:16.105Z,61.18
2022-10-01T23:01:59.139Z,61.63
2022-10-01T23:04:41.126Z,62.16
2022-10-01T23:07:17.525Z,61.52
2022-10-01T23:09:50.639Z,61.47
2022-10-01T23:12:25.651Z,62.20
2022-10-01T23:15:04.671Z,61.73
2022-10-01T23:17:39.581Z,61.58
2022-10-01T23:20:23.827Z,60.99
2022-10-01T23:23:29.610Z,61.08
2022-10-01T23:26:17.198Z,60.87
2022-10-01T23:29:00.888Z,60.83
2022-10-01T23:31:34.942Z,60.93
2022-10-01T23:34:20.188Z,60.40
2022-10-01T23:36:51.041Z,60.92
2022-10-01T23:39:43.157Z,60.50
2022-10-01T23:42:20.351Z,60.29
2022-10-01T23:44:54.551Z,60.38
2022-10-01T23:47:29.049Z,60.63
2022-10-01T23:50:23.498Z,60.63
2022-10-01T23:52:58.849Z,60.18
2022-10-01T23:55:59.776Z,60.52
2022-10-01T23:58:30.823Z,60.27
